createdAt,value
2019-06-10T00:02:26.019Z,12.03
2019-06-10T00:04:57.592Z,12.07
2019-06-10T00:07:28.737Z,11.22
2019-06-10T00:10:02.158Z,11.43
2019-06-10T00:12:32.633Z,11.78
2019-06-10T00:15:06.247Z,11.43
2019-06-10T00:17:52.497Z,10.85
2019-06-10T00:20:11.260Z,11.73
2019-06-10T00:22:42.293Z,11.75
2019-06-10T00:25:13.689Z,11.25
2019-06-10T00:27:44.919Z,11.50
2019-06-10T00:30:16.235Z,11.40
2019-06-10T00:32:47.435Z,11.90
2019-06-10T00:35:18.317Z,11.50
2019-06-10T00:37:51.251Z,12.43
2019-06-10T00:40:21.986Z,11.88
2019-06-10T00:42:52.894Z,10.60
2019-06-10T00:45:24.022Z,11.50
2019-06-10T00:48:08.610Z,11.55
2019-06-10T00:50:27.680Z,11.40
2019-06-10T00:53:00.970Z,10.20
2019-06-10T00:55:31.514Z,10.98
2019-06-10T00:58:04.039Z,11.55
2019-06-10T01:00:35.493Z,11.25
2019-06-10T01:03:08.029Z,12.28
2019-06-10T01:05:41.747Z,10.30
2019-06-10T01:08:15.555Z,8.95
2019-06-10T01:10:45.074Z,10.93
2019-06-10T01:13:16.206Z,10.95
2019-06-10T01:15:47.260Z,10.80
2019-06-10T01:18:32.007Z,10.40
2019-06-10T01:20:51.736Z,9.48
2019-06-10T01:23:22.945Z,9.13
2019-06-10T01:25:53.952Z,11.88
2019-06-10T01:28:24.905Z,12.13
2019-06-10T01:30:55.853Z,12.68
2019-06-10T01:33:26.948Z,11.73
2019-06-10T01:35:57.926Z,12.70
2019-06-10T01:38:28.825Z,12.28
2019-06-10T01:41:01.540Z,13.05
2019-06-10T01:43:32.283Z,12.05
2019-06-10T01:46:03.716Z,11.83
2019-06-10T01:48:44.108Z,11.63
2019-06-10T01:51:07.506Z,11.73
2019-06-10T01:53:38.700Z,11.48
2019-06-10T01:56:12.401Z,12.90
2019-06-10T01:58:42.607Z,11.00
2019-06-10T02:01:23.121Z,10.13
2019-06-10T02:03:52.050Z,12.03
2019-06-10T02:06:25.800Z,11.43
2019-06-10T02:08:57.281Z,11.30
2019-06-10T02:11:28.451Z,10.40
2019-06-10T02:14:00.883Z,11.40
2019-06-10T02:16:32.513Z,11.48
2019-06-10T02:19:04.369Z,11.83
2019-06-10T02:21:35.600Z,11.53
2019-06-10T02:24:06.841Z,11.00
2019-06-10T02:26:38.090Z,10.82
2019-06-10T02:29:11.187Z,11.78
2019-06-10T02:31:43.248Z,11.83
2019-06-10T02:34:19.659Z,11.57
2019-06-10T02:36:48.111Z,11.85
2019-06-10T02:39:26.387Z,11.43
2019-06-10T02:41:54.007Z,11.57
2019-06-10T02:44:32.486Z,11.97
2019-06-10T02:46:58.084Z,11.57
2019-06-10T02:49:50.619Z,12.13
2019-06-10T02:52:03.767Z,12.73
2019-06-10T02:54:35.926Z,11.80
2019-06-10T02:57:07.291Z,11.45
2019-06-10T02:59:38.471Z,12.78
2019-06-10T03:02:09.432Z,11.22
2019-06-10T03:04:43.329Z,10.43
2019-06-10T03:07:13.786Z,12.10
2019-06-10T03:09:44.754Z,11.63
2019-06-10T03:12:15.801Z,11.55
2019-06-10T03:14:48.555Z,14.47
2019-06-10T03:17:24.571Z,11.63
2019-06-10T03:19:53.907Z,11.88
2019-06-10T03:22:25.838Z,11.88
2019-06-10T03:24:57.071Z,12.47
2019-06-10T03:27:28.078Z,12.13
2019-06-10T03:29:59.043Z,11.70
2019-06-10T03:32:40.087Z,11.93
2019-06-10T03:35:05.431Z,13.22
2019-06-10T03:37:36.383Z,11.80
2019-06-10T03:40:08.385Z,13.03
2019-06-10T03:42:39.416Z,11.25
2019-06-10T03:45:12.607Z,12.13
2019-06-10T03:47:43.986Z,12.35
2019-06-10T03:50:17.066Z,12.82
2019-06-10T03:52:48.016Z,12.25
2019-06-10T03:55:22.987Z,12.30
2019-06-10T03:57:52.724Z,12.10
2019-06-10T04:00:25.540Z,12.50
2019-06-10T04:02:56.711Z,12.73
2019-06-10T04:05:28.886Z,13.32
2019-06-10T04:08:02.105Z,12.73
2019-06-10T04:10:32.636Z,13.03
2019-06-10T04:13:03.603Z,12.47
2019-06-10T04:15:35.329Z,12.35
2019-06-10T04:18:06.377Z,12.85
2019-06-10T04:20:37.521Z,13.40
2019-06-10T04:23:08.432Z,13.60
2019-06-10T04:25:43.401Z,13.53
2019-06-10T04:28:14.378Z,12.10
2019-06-10T04:30:45.571Z,13.50
2019-06-10T04:33:16.714Z,13.15
2019-06-10T04:35:47.951Z,12.75
2019-06-10T04:38:20.301Z,14.35
2019-06-10T04:40:52.542Z,13.30
2019-06-10T04:43:26.004Z,11.43
2019-06-10T04:45:56.349Z,13.70
2019-06-10T04:48:28.071Z,13.35
2019-06-10T04:51:02.463Z,12.95
2019-06-10T04:53:33.262Z,12.98
2019-06-10T04:56:04.557Z,12.13
2019-06-10T04:58:35.712Z,11.95
2019-06-10T05:01:08.042Z,13.08
2019-06-10T05:03:39.184Z,13.68
2019-06-10T05:06:12.380Z,13.55
2019-06-10T05:08:43.025Z,13.32
2019-06-10T05:11:14.067Z,13.03
2019-06-10T05:13:45.246Z,12.85
2019-06-10T05:16:16.312Z,13.15
2019-06-10T05:18:54.017Z,12.55
2019-06-10T05:21:25.063Z,12.47
2019-06-10T05:23:55.986Z,14.20
2019-06-10T05:26:28.803Z,11.57
2019-06-10T05:29:00.298Z,11.73
2019-06-10T05:31:35.121Z,12.20
2019-06-10T05:34:04.246Z,12.03
2019-06-10T05:36:35.510Z,12.70
2019-06-10T05:39:08.534Z,10.98
2019-06-10T05:41:39.504Z,10.85
2019-06-10T05:44:13.191Z,11.90
2019-06-10T05:46:43.782Z,11.78
2019-06-10T05:49:14.981Z,11.53
2019-06-10T05:51:45.962Z,12.73
2019-06-10T05:54:17.212Z,12.28
2019-06-10T05:56:48.207Z,12.03
2019-06-10T05:59:19.344Z,12.98
2019-06-10T06:01:53.665Z,11.78
2019-06-10T06:04:24.637Z,11.33
2019-06-10T06:06:55.657Z,11.63
2019-06-10T06:09:27.171Z,11.97
2019-06-10T06:11:58.244Z,11.93
2019-06-10T06:14:29.557Z,11.60
2019-06-10T06:17:02.234Z,11.38
2019-06-10T06:19:37.370Z,12.75
2019-06-10T06:22:07.481Z,11.08
2019-06-10T06:24:38.514Z,10.15
2019-06-10T06:27:09.575Z,10.90
2019-06-10T06:29:42.955Z,9.93
2019-06-10T06:32:13.521Z,9.98
2019-06-10T06:34:44.617Z,10.53
2019-06-10T06:37:15.732Z,10.95
2019-06-10T06:39:46.872Z,10.45
2019-06-10T06:42:18.044Z,10.23
2019-06-10T06:44:49.156Z,10.85
2019-06-10T06:47:22.680Z,9.70
2019-06-10T06:49:53.544Z,9.90
2019-06-10T06:52:46.994Z,9.58
2019-06-10T06:54:57.492Z,9.43
2019-06-10T06:57:28.928Z,10.25
2019-06-10T07:00:22.460Z,9.75
2019-06-10T07:02:37.186Z,10.35
2019-06-10T07:05:09.016Z,10.58
2019-06-10T07:07:41.121Z,10.25
2019-06-10T07:10:13.155Z,10.80
2019-06-10T07:12:45.880Z,10.70
2019-06-10T07:15:18.820Z,11.20
2019-06-10T07:17:52.540Z,10.00
2019-06-10T07:20:23.052Z,10.75
2019-06-10T07:22:54.378Z,10.43
2019-06-10T07:25:26.031Z,10.30
2019-06-10T07:27:57.305Z,11.38
2019-06-10T07:30:28.477Z,10.38
2019-06-10T07:32:59.556Z,11.25
2019-06-10T07:35:32.611Z,10.98
2019-06-10T07:38:03.632Z,9.53
2019-06-10T07:40:36.203Z,11.12
2019-06-10T07:43:07.718Z,10.75
2019-06-10T07:45:41.587Z,10.15
2019-06-10T07:48:12.227Z,10.53
2019-06-10T07:50:45.614Z,10.85
2019-06-10T07:53:16.258Z,10.68
2019-06-10T07:55:47.106Z,10.45
2019-06-10T07:58:18.420Z,10.43
2019-06-10T08:00:49.490Z,10.85
2019-06-10T08:03:22.487Z,10.55
2019-06-10T08:05:54.201Z,9.05
2019-06-10T08:08:26.828Z,10.00
2019-06-10T08:10:57.914Z,10.70
2019-06-10T08:13:29.039Z,9.80
2019-06-10T08:16:02.536Z,11.38
2019-06-10T08:18:41.790Z,10.35
2019-06-10T08:21:07.624Z,9.30
2019-06-10T08:23:38.721Z,8.03
2019-06-10T08:26:12.456Z,9.05
2019-06-10T08:28:46.391Z,10.58
2019-06-10T08:31:15.239Z,9.43
2019-06-10T08:33:49.008Z,10.00
2019-06-10T08:36:21.981Z,8.35
2019-06-10T08:38:52.901Z,9.45
2019-06-10T08:41:24.665Z,8.65
2019-06-10T08:43:55.741Z,8.90
2019-06-10T08:46:26.913Z,10.78
2019-06-10T08:48:58.258Z,9.85
2019-06-10T08:51:29.235Z,9.28
2019-06-10T08:54:02.392Z,9.25
2019-06-10T08:56:32.994Z,8.73
2019-06-10T08:59:04.410Z,9.83
2019-06-10T09:01:35.549Z,10.03
2019-06-10T09:04:06.869Z,9.33
2019-06-10T09:06:39.224Z,9.45
2019-06-10T09:09:12.854Z,9.33
2019-06-10T09:11:47.503Z,9.20
2019-06-10T09:14:16.752Z,9.60
2019-06-10T09:16:49.346Z,8.55
2019-06-10T09:19:22.192Z,8.78
2019-06-10T09:21:56.126Z,8.38
2019-06-10T09:24:26.061Z,9.20
2019-06-10T09:26:57.099Z,8.93
2019-06-10T09:29:28.219Z,9.20
2019-06-10T09:31:59.227Z,12.07
2019-06-10T09:34:32.856Z,9.53
2019-06-10T09:37:04.143Z,9.55
2019-06-10T09:39:35.251Z,10.75
2019-06-10T09:42:06.962Z,8.43
2019-06-10T09:44:41.661Z,8.23
2019-06-10T09:47:14.250Z,9.50
2019-06-10T09:49:47.305Z,8.58
2019-06-10T09:52:17.979Z,8.78
2019-06-10T09:54:55.718Z,8.45
2019-06-10T09:57:23.855Z,8.90
2019-06-10T09:59:56.447Z,8.95
2019-06-10T10:02:27.495Z,7.78
2019-06-10T10:05:00.355Z,7.92
2019-06-10T10:07:32.567Z,7.30
2019-06-10T10:10:05.585Z,7.40
2019-06-10T10:12:36.524Z,8.00
2019-06-10T10:15:26.642Z,7.72
2019-06-10T10:17:44.831Z,8.65
2019-06-10T10:20:16.769Z,7.20
2019-06-10T10:22:49.235Z,7.45
2019-06-10T10:25:23.409Z,8.20
2019-06-10T10:27:57.387Z,7.40
2019-06-10T10:30:28.304Z,7.80
2019-06-10T10:32:59.208Z,7.60
2019-06-10T10:35:32.517Z,7.95
2019-06-10T10:38:03.907Z,8.00
2019-06-10T10:40:35.310Z,7.03
2019-06-10T10:43:24.492Z,7.90
2019-06-10T10:45:42.335Z,8.15
2019-06-10T10:48:14.080Z,7.62
2019-06-10T10:50:45.685Z,7.12
2019-06-10T10:53:18.106Z,7.92
2019-06-10T10:55:49.262Z,7.37
2019-06-10T10:58:22.501Z,7.60
2019-06-10T11:00:56.791Z,7.60
2019-06-10T11:03:25.840Z,6.78
2019-06-10T11:06:00.711Z,6.90
2019-06-10T11:08:32.393Z,6.70
2019-06-10T11:11:05.208Z,8.18
2019-06-10T11:13:38.592Z,7.10
2019-06-10T11:16:09.652Z,7.22
2019-06-10T11:18:42.282Z,7.37
2019-06-10T11:21:13.542Z,6.92
2019-06-10T11:23:46.172Z,6.95
2019-06-10T11:26:17.671Z,7.78
2019-06-10T11:28:49.527Z,7.25
2019-06-10T11:31:22.696Z,6.55
2019-06-10T11:33:57.329Z,6.33
2019-06-10T11:36:26.833Z,6.05
2019-06-10T11:38:59.222Z,6.62
2019-06-10T11:41:32.502Z,6.75
2019-06-10T11:44:03.319Z,7.03
2019-06-10T11:46:34.493Z,7.47
2019-06-10T11:49:05.657Z,7.05
2019-06-10T11:51:36.609Z,7.00
2019-06-10T11:54:07.950Z,6.97
2019-06-10T11:56:38.828Z,6.78
2019-06-10T11:59:10.326Z,6.20
2019-06-10T12:01:43.100Z,6.50
2019-06-10T12:04:14.179Z,6.75
2019-06-10T12:06:45.571Z,6.47
2019-06-10T12:09:16.665Z,6.78
2019-06-10T12:11:49.058Z,5.95
2019-06-10T12:14:23.857Z,6.45
2019-06-10T12:19:26.017Z,6.37
2019-06-10T12:22:00.325Z,6.70
2019-06-10T12:24:32.830Z,6.65
2019-06-10T12:27:05.024Z,7.03
2019-06-10T12:29:35.513Z,6.40
2019-06-10T12:32:07.615Z,7.45
2019-06-10T12:34:38.839Z,6.97
2019-06-10T12:37:14.815Z,7.33
2019-06-10T12:39:43.088Z,6.85
2019-06-10T12:42:14.485Z,7.00
2019-06-10T12:44:46.058Z,6.05
2019-06-10T12:47:17.002Z,6.15
2019-06-10T12:49:48.114Z,6.58
2019-06-10T12:52:19.450Z,6.62
2019-06-10T12:54:50.757Z,6.80
2019-06-10T12:57:23.013Z,6.65
2019-06-10T12:59:54.526Z,7.80
2019-06-10T13:02:31.157Z,7.00
2019-06-10T13:04:59.628Z,7.33
2019-06-10T13:07:33.402Z,7.22
2019-06-10T13:10:15.603Z,7.65
2019-06-10T13:12:48.973Z,7.67
2019-06-10T13:15:22.125Z,7.75
2019-06-10T13:17:53.849Z,7.53
2019-06-10T13:20:24.892Z,6.30
2019-06-10T13:22:56.243Z,6.87
2019-06-10T13:25:27.693Z,7.65
2019-06-10T13:27:59.810Z,7.10
2019-06-10T13:30:34.140Z,7.83
2019-06-10T13:33:10.473Z,7.50
2019-06-10T13:35:37.376Z,7.20
2019-06-10T13:38:08.676Z,7.45
2019-06-10T13:40:39.816Z,7.30
2019-06-10T13:43:12.462Z,7.60
2019-06-10T13:45:44.336Z,7.28
2019-06-10T13:48:15.313Z,6.80
2019-06-10T13:50:46.525Z,7.72
2019-06-10T13:53:17.552Z,7.67
2019-06-10T13:55:48.893Z,7.30
2019-06-10T13:58:22.818Z,7.72
2019-06-10T14:00:53.581Z,7.70
2019-06-10T14:03:25.196Z,7.40
2019-06-10T14:05:59.782Z,6.90
2019-06-10T14:08:28.855Z,7.92
2019-06-10T14:11:03.338Z,7.05
2019-06-10T14:13:32.791Z,7.65
2019-06-10T14:16:05.485Z,7.95
2019-06-10T14:18:36.821Z,7.53
2019-06-10T14:21:11.620Z,7.20
2019-06-10T14:23:42.334Z,6.92
2019-06-10T14:26:17.005Z,7.03
2019-06-10T14:28:46.686Z,7.28
2019-06-10T14:31:38.679Z,7.78
2019-06-10T14:33:53.107Z,7.12
2019-06-10T14:36:23.153Z,7.55
2019-06-10T14:38:54.043Z,7.05
2019-06-10T14:41:26.018Z,7.40
2019-06-10T14:43:57.287Z,6.10
2019-06-10T14:46:28.426Z,7.10
2019-06-10T14:48:59.333Z,6.97
2019-06-10T14:51:32.478Z,7.85
2019-06-10T14:54:03.242Z,8.05
2019-06-10T14:56:47.179Z,6.83
2019-06-10T14:59:07.555Z,6.62
2019-06-10T15:01:38.936Z,7.25
2019-06-10T15:04:10.205Z,6.60
2019-06-10T15:06:43.130Z,12.75
2019-06-10T15:09:15.669Z,9.65
2019-06-10T15:11:46.715Z,10.68
2019-06-10T15:14:18.192Z,10.60
2019-06-10T15:16:49.194Z,7.95
2019-06-10T15:19:28.033Z,6.55
2019-06-10T15:21:52.955Z,7.42
2019-06-10T15:24:24.011Z,7.15
2019-06-10T15:27:08.876Z,8.23
2019-06-10T15:29:27.861Z,8.20
2019-06-10T15:32:10.183Z,8.13
2019-06-10T15:34:32.543Z,11.00
2019-06-10T15:37:03.954Z,12.10
2019-06-10T15:39:35.318Z,7.40
2019-06-10T15:42:06.494Z,7.17
2019-06-10T15:44:48.886Z,6.80
2019-06-10T15:47:13.876Z,9.08
2019-06-10T15:49:42.948Z,7.53
2019-06-10T15:52:17.471Z,7.53
2019-06-10T15:54:47.254Z,6.87
2019-06-10T15:57:32.237Z,7.72
2019-06-10T15:59:52.117Z,7.47
2019-06-10T16:02:25.596Z,7.12
2019-06-10T16:04:56.198Z,7.92
2019-06-10T16:07:35.134Z,7.40
2019-06-10T16:10:12.177Z,7.00
2019-06-10T16:12:43.888Z,8.03
2019-06-10T16:15:16.575Z,7.92
2019-06-10T16:17:47.880Z,7.17
2019-06-10T16:20:19.445Z,8.65
2019-06-10T16:22:52.321Z,7.47
2019-06-10T16:25:26.475Z,8.05
2019-06-10T16:27:56.453Z,6.97
2019-06-10T16:30:27.492Z,8.70
2019-06-10T16:32:58.655Z,8.25
2019-06-10T16:35:32.121Z,7.78
2019-06-10T16:38:02.586Z,7.30
2019-06-10T16:40:33.538Z,6.92
2019-06-10T16:43:04.528Z,7.60
2019-06-10T16:45:37.059Z,6.53
2019-06-10T16:48:08.254Z,6.83
2019-06-10T16:50:42.479Z,6.67
2019-06-10T16:53:13.733Z,7.53
2019-06-10T16:55:44.878Z,7.80
2019-06-10T16:58:15.881Z,7.75
2019-06-10T17:00:46.846Z,6.03
2019-06-10T17:03:18.384Z,6.60
2019-06-10T17:05:50.024Z,5.83
2019-06-10T17:08:24.942Z,5.90
2019-06-10T17:10:54.049Z,6.92
2019-06-10T17:13:27.256Z,7.33
2019-06-10T17:15:59.844Z,6.83
2019-06-10T17:18:33.382Z,6.97
2019-06-10T17:21:04.252Z,6.70
2019-06-10T17:23:36.732Z,7.78
2019-06-10T17:26:07.924Z,6.97
2019-06-10T17:28:39.048Z,7.45
2019-06-10T17:31:10.107Z,7.00
2019-06-10T17:33:42.742Z,6.85
2019-06-10T17:36:14.137Z,5.90
2019-06-10T17:38:46.245Z,6.95
2019-06-10T17:41:17.301Z,6.60
2019-06-10T17:43:48.697Z,6.90
2019-06-10T17:46:21.745Z,8.60
2019-06-10T17:48:52.873Z,8.68
2019-06-10T17:51:26.188Z,7.30
2019-06-10T17:53:56.908Z,6.97
2019-06-10T17:56:29.188Z,7.22
2019-06-10T17:59:03.158Z,7.22
2019-06-10T18:01:35.263Z,8.25
2019-06-10T18:04:06.389Z,7.70
2019-06-10T18:06:37.286Z,9.00
2019-06-10T18:09:09.239Z,9.95
2019-06-10T18:11:42.469Z,10.10
2019-06-10T18:14:12.988Z,10.10
2019-06-10T18:16:43.999Z,9.68
2019-06-10T18:19:15.166Z,9.60
2019-06-10T18:21:46.330Z,10.90
2019-06-10T18:24:20.653Z,9.63
2019-06-10T18:26:52.751Z,9.18
2019-06-10T18:29:23.196Z,11.12
2019-06-10T18:31:54.787Z,10.43
2019-06-10T18:34:25.970Z,10.50
2019-06-10T18:36:59.194Z,10.15
2019-06-10T18:39:31.456Z,10.80
2019-06-10T18:42:03.322Z,11.03
2019-06-10T18:44:37.080Z,11.08
2019-06-10T18:47:07.551Z,11.08
2019-06-10T18:49:38.624Z,10.00
2019-06-10T18:52:12.671Z,10.38
2019-06-10T18:54:43.762Z,11.05
2019-06-10T18:57:14.741Z,11.28
2019-06-10T18:59:45.768Z,11.15
2019-06-10T19:02:17.706Z,10.55
2019-06-10T19:04:48.675Z,10.93
2019-06-10T19:07:19.751Z,10.80
2019-06-10T19:09:52.713Z,11.55
2019-06-10T19:12:23.447Z,11.35
2019-06-10T19:14:54.607Z,11.43
2019-06-10T19:17:25.817Z,11.68
2019-06-10T19:19:56.639Z,9.95
2019-06-10T19:22:27.557Z,9.55
2019-06-10T19:24:58.716Z,8.53
2019-06-10T19:27:31.286Z,12.00
2019-06-10T19:30:02.504Z,11.30
2019-06-10T19:32:35.558Z,11.33
2019-06-10T19:35:12.941Z,11.03
2019-06-10T19:37:43.671Z,10.98
2019-06-10T19:40:16.613Z,11.22
2019-06-10T19:42:47.589Z,16.12
2019-06-10T19:45:19.018Z,17.45
2019-06-10T19:47:52.272Z,14.40
2019-06-10T19:50:23.247Z,11.15
2019-06-10T19:52:54.313Z,11.22
2019-06-10T19:55:25.661Z,10.63
2019-06-10T19:57:56.702Z,10.18
2019-06-10T20:00:27.825Z,10.65
2019-06-10T20:02:58.945Z,10.32
2019-06-10T20:05:32.399Z,10.10
2019-06-10T20:08:03.188Z,9.30
2019-06-10T20:10:34.256Z,9.38
2019-06-10T20:13:06.121Z,10.68
2019-06-10T20:15:37.428Z,9.40
2019-06-10T20:18:08.930Z,10.00
2019-06-10T20:20:40.131Z,10.00
2019-06-10T20:23:11.255Z,12.82
2019-06-10T20:25:44.470Z,11.10
2019-06-10T20:28:15.392Z,9.53
2019-06-10T20:30:49.018Z,14.28
2019-06-10T20:33:33.864Z,12.23
2019-06-10T20:36:07.966Z,14.28
2019-06-10T20:38:36.234Z,13.32
2019-06-10T20:41:07.552Z,13.95
2019-06-10T20:43:39.223Z,13.60
2019-06-10T20:46:12.811Z,14.55
2019-06-10T20:48:45.188Z,15.43
2019-06-10T20:51:15.890Z,15.43
2019-06-10T20:53:47.973Z,13.88
2019-06-10T20:56:20.412Z,14.80
2019-06-10T20:58:52.710Z,14.43
2019-06-10T21:01:25.135Z,13.78
2019-06-10T21:03:56.748Z,15.65
2019-06-10T21:06:32.567Z,15.80
2019-06-10T21:09:04.181Z,14.53
2019-06-10T21:11:35.166Z,17.67
2019-06-10T21:14:06.321Z,16.27
2019-06-10T21:16:37.456Z,16.37
2019-06-10T21:19:10.026Z,14.55
2019-06-10T21:21:45.116Z,15.88
2019-06-10T21:24:13.963Z,14.07
2019-06-10T21:26:47.057Z,13.48
2019-06-10T21:29:17.566Z,14.33
2019-06-10T21:31:50.433Z,13.05
2019-06-10T21:34:22.529Z,13.20
2019-06-10T21:36:54.347Z,14.03
2019-06-10T21:39:27.088Z,15.28
2019-06-10T21:41:58.254Z,15.35
2019-06-10T21:44:29.346Z,14.28
2019-06-10T21:47:02.460Z,15.10
2019-06-10T21:49:33.776Z,15.55
2019-06-10T21:52:05.120Z,16.55
2019-06-10T21:54:36.306Z,16.15
2019-06-10T21:57:07.478Z,13.68
2019-06-10T21:59:38.358Z,14.45
2019-06-10T22:02:09.516Z,14.35
2019-06-10T22:04:40.682Z,13.72
2019-06-10T22:07:11.826Z,14.30
2019-06-10T22:09:44.114Z,13.00
2019-06-10T22:12:15.506Z,13.38
2019-06-10T22:14:46.790Z,15.18
2019-06-10T22:17:17.888Z,15.58
2019-06-10T22:19:48.878Z,13.20
2019-06-10T22:22:19.897Z,14.73
2019-06-10T22:24:53.357Z,17.10
2019-06-10T22:27:24.388Z,14.50
2019-06-10T22:29:57.050Z,14.50
2019-06-10T22:32:28.748Z,15.28
2019-06-10T22:35:00.075Z,18.07
2019-06-10T22:37:32.989Z,17.40
2019-06-10T22:40:05.762Z,18.45
2019-06-10T22:42:36.800Z,18.23
2019-06-10T22:45:08.848Z,17.57
2019-06-10T22:47:39.770Z,16.30
2019-06-10T22:50:12.611Z,16.93
2019-06-10T22:52:43.786Z,15.48
